createdAt,value
2019-03-24T00:00:59.280Z,0.00
2019-03-24T00:01:59.258Z,0.00
2019-03-24T00:02:59.253Z,0.00
2019-03-24T00:03:59.238Z,0.00
2019-03-24T00:04:59.234Z,0.00
2019-03-24T00:05:59.217Z,0.00
2019-03-24T00:06:59.212Z,0.00
2019-03-24T00:07:59.226Z,0.00
2019-03-24T00:08:59.188Z,0.00
2019-03-24T00:09:59.188Z,0.00
2019-03-24T00:10:59.155Z,0.00
2019-03-24T00:11:59.156Z,0.00
2019-03-24T00:12:59.173Z,0.00
2019-03-24T00:13:59.130Z,0.00
2019-03-24T00:14:59.114Z,0.00
2019-03-24T00:15:59.117Z,0.00
2019-03-24T00:16:59.103Z,0.00
2019-03-24T00:17:59.094Z,0.00
2019-03-24T00:18:59.076Z,0.00
2019-03-24T00:19:59.065Z,0.00
2019-03-24T00:20:59.047Z,0.00
2019-03-24T00:23:15.569Z,0.00
2019-03-24T00:24:15.551Z,0.00
2019-03-24T00:25:15.542Z,0.00
2019-03-24T00:26:15.529Z,0.00
2019-03-24T00:27:15.519Z,0.00
2019-03-24T00:28:15.519Z,0.00
2019-03-24T00:29:15.499Z,0.00
2019-03-24T00:30:15.492Z,0.00
2019-03-24T00:31:15.477Z,0.00
2019-03-24T00:32:15.469Z,0.00
2019-03-24T00:33:15.464Z,0.00
2019-03-24T00:34:15.444Z,0.00
2019-03-24T00:35:15.446Z,0.00
2019-03-24T00:36:15.426Z,0.00
2019-03-24T00:37:15.412Z,0.00
2019-03-24T00:38:15.410Z,0.00
2019-03-24T00:39:15.392Z,0.00
2019-03-24T00:40:15.381Z,0.00
2019-03-24T00:41:15.383Z,0.00
2019-03-24T00:42:15.359Z,0.00
2019-03-24T00:43:15.361Z,0.00
2019-03-24T00:44:15.339Z,0.00
2019-03-24T00:45:15.328Z,0.00
2019-03-24T00:46:15.319Z,0.00
2019-03-24T00:47:15.303Z,0.00
2019-03-24T00:48:15.304Z,0.00
2019-03-24T00:49:15.282Z,0.00
2019-03-24T00:50:15.270Z,0.00
2019-03-24T00:51:15.262Z,0.00
2019-03-24T00:52:15.249Z,0.00
2019-03-24T00:53:15.251Z,0.00
2019-03-24T00:54:15.227Z,0.00
2019-03-24T00:55:15.216Z,0.00
2019-03-24T00:56:15.211Z,0.00
2019-03-24T00:57:15.196Z,0.00
2019-03-24T00:58:15.203Z,0.00
2019-03-24T00:59:15.172Z,0.00
2019-03-24T01:00:15.162Z,0.00
2019-03-24T01:01:15.153Z,0.00
2019-03-24T01:02:15.146Z,0.00
2019-03-24T01:03:15.154Z,0.00
2019-03-24T01:04:15.121Z,0.00
2019-03-24T01:05:15.108Z,0.00
2019-03-24T01:06:15.098Z,0.00
2019-03-24T01:07:15.088Z,0.00
2019-03-24T01:08:15.096Z,0.00
2019-03-24T01:09:15.068Z,0.00
2019-03-24T01:10:15.057Z,0.00
2019-03-24T01:11:15.047Z,0.00
2019-03-24T01:12:15.035Z,0.00
2019-03-24T01:13:15.034Z,0.00
2019-03-24T01:14:15.012Z,0.00
2019-03-24T01:15:15.019Z,0.00
2019-03-24T01:16:14.993Z,0.00
2019-03-24T01:17:14.984Z,0.00
2019-03-24T01:18:14.969Z,0.00
2019-03-24T01:19:14.981Z,0.00
2019-03-24T01:20:14.950Z,0.00
2019-03-24T01:21:14.939Z,0.00
2019-03-24T01:22:14.932Z,0.00
2019-03-24T01:23:14.925Z,0.00
2019-03-24T01:24:14.919Z,0.00
2019-03-24T01:25:14.895Z,0.00
2019-03-24T01:26:14.899Z,0.00
2019-03-24T01:27:14.874Z,0.00
2019-03-24T01:28:14.871Z,0.00
2019-03-24T01:29:14.864Z,0.00
2019-03-24T01:30:14.842Z,0.00
2019-03-24T01:31:14.832Z,0.00
2019-03-24T01:32:14.825Z,0.00
2019-03-24T01:33:14.813Z,0.00
2019-03-24T01:34:14.818Z,0.00
2019-03-24T01:35:14.790Z,0.00
2019-03-24T01:36:14.782Z,0.00
2019-03-24T01:37:14.770Z,0.00
2019-03-24T01:38:14.763Z,0.00
2019-03-24T01:39:14.756Z,0.00
2019-03-24T01:40:14.745Z,0.00
2019-03-24T01:41:14.725Z,0.00
2019-03-24T01:42:14.720Z,0.00
2019-03-24T01:43:14.713Z,0.00
2019-03-24T01:44:14.702Z,0.00
2019-03-24T01:45:14.684Z,0.00
2019-03-24T01:46:14.670Z,0.00
2019-03-24T01:47:14.662Z,0.00
2019-03-24T01:48:14.649Z,0.00
2019-03-24T01:49:14.654Z,0.00
2019-03-24T01:50:14.630Z,0.00
2019-03-24T01:51:14.621Z,0.00
2019-03-24T01:52:14.620Z,0.00
2019-03-24T01:53:14.597Z,0.00
2019-03-24T01:54:14.597Z,0.00
2019-03-24T01:55:14.575Z,0.00
2019-03-24T01:56:14.565Z,0.00
2019-03-24T01:57:14.557Z,0.00
2019-03-24T01:58:14.544Z,0.00
2019-03-24T01:59:14.541Z,0.00
2019-03-24T02:00:14.521Z,0.00
2019-03-24T02:01:14.513Z,0.00
2019-03-24T02:02:14.499Z,0.00
2019-03-24T02:03:14.494Z,0.00
2019-03-24T02:04:14.491Z,0.00
2019-03-24T02:05:14.471Z,0.00
2019-03-24T02:06:14.456Z,0.00
2019-03-24T02:07:14.450Z,0.00
2019-03-24T02:08:14.437Z,0.00
2019-03-24T02:09:14.443Z,0.00
2019-03-24T02:10:14.415Z,0.00
2019-03-24T02:11:14.407Z,0.00
2019-03-24T02:12:14.394Z,0.00
2019-03-24T02:13:14.422Z,0.00
2019-03-24T02:14:14.380Z,0.00
2019-03-24T02:15:14.366Z,0.00
2019-03-24T02:16:14.355Z,0.00
2019-03-24T02:17:14.339Z,0.00
2019-03-24T02:18:14.330Z,0.00
2019-03-24T02:19:14.327Z,0.00
2019-03-24T02:20:14.309Z,0.00
2019-03-24T02:21:14.301Z,0.00
2019-03-24T02:22:14.286Z,0.00
2019-03-24T02:23:14.275Z,0.00
2019-03-24T02:24:14.298Z,0.00
2019-03-24T02:25:14.259Z,0.00
2019-03-24T02:26:14.241Z,0.00
2019-03-24T02:27:14.231Z,0.00
2019-03-24T02:28:14.221Z,0.00
2019-03-24T02:29:14.224Z,0.00
2019-03-24T02:30:14.208Z,0.00
2019-03-24T02:31:14.187Z,0.00
2019-03-24T02:32:14.181Z,0.00
2019-03-24T02:33:14.174Z,0.00
2019-03-24T02:34:14.159Z,0.00
2019-03-24T02:35:14.162Z,0.00
2019-03-24T02:36:14.134Z,0.00
2019-03-24T02:37:14.128Z,0.00
2019-03-24T02:38:14.111Z,0.00
2019-03-24T02:39:14.102Z,0.00
2019-03-24T02:40:14.101Z,0.00
2019-03-24T02:41:14.082Z,0.00
2019-03-24T02:42:14.073Z,0.00
2019-03-24T02:43:14.060Z,0.00
2019-03-24T02:44:14.048Z,0.00
2019-03-24T02:45:14.047Z,0.00
2019-03-24T02:46:24.254Z,0.00
2019-03-24T02:47:15.018Z,0.00
2019-03-24T02:48:14.015Z,0.00
2019-03-24T02:49:13.994Z,0.00
2019-03-24T02:50:13.993Z,0.00
2019-03-24T02:51:13.975Z,0.00
2019-03-24T02:52:13.962Z,0.00
2019-03-24T02:53:13.951Z,0.00
2019-03-24T02:54:13.941Z,0.00
2019-03-24T02:55:13.949Z,0.00
2019-03-24T02:56:13.933Z,0.00
2019-03-24T02:57:13.913Z,0.00
2019-03-24T02:58:13.897Z,0.00
2019-03-24T02:59:13.893Z,0.00
2019-03-24T03:00:13.906Z,0.00
2019-03-24T03:01:13.867Z,0.00
2019-03-24T03:02:13.859Z,0.00
2019-03-24T03:03:13.859Z,0.00
2019-03-24T03:04:13.832Z,0.00
2019-03-24T03:05:13.832Z,0.00
2019-03-24T03:06:13.813Z,0.00
2019-03-24T03:07:13.800Z,0.00
2019-03-24T03:08:13.797Z,0.00
2019-03-24T03:09:13.869Z,0.00
2019-03-24T03:10:13.781Z,0.00
2019-03-24T03:11:13.765Z,0.00
2019-03-24T03:12:13.748Z,0.00
2019-03-24T03:13:13.741Z,0.00
2019-03-24T03:14:13.727Z,0.00
2019-03-24T03:15:13.724Z,0.00
2019-03-24T03:16:13.704Z,0.00
2019-03-24T03:17:13.696Z,0.00
2019-03-24T03:18:13.684Z,0.00
2019-03-24T03:19:13.673Z,0.00
2019-03-24T03:20:13.672Z,0.00
2019-03-24T03:21:13.649Z,0.00
2019-03-24T03:22:13.640Z,0.00
2019-03-24T03:23:13.635Z,0.00
2019-03-24T03:24:13.620Z,0.00
2019-03-24T03:25:13.630Z,0.00
2019-03-24T03:26:13.596Z,0.00
2019-03-24T03:27:13.587Z,0.00
2019-03-24T03:28:13.577Z,0.00
2019-03-24T03:29:13.564Z,0.00
2019-03-24T03:30:13.564Z,0.00
2019-03-24T03:31:13.575Z,0.00
2019-03-24T03:32:13.535Z,0.00
2019-03-24T03:33:13.538Z,0.00
2019-03-24T03:34:13.537Z,0.00
2019-03-24T03:35:13.500Z,0.00
2019-03-24T03:36:13.509Z,0.00
2019-03-24T03:37:13.480Z,0.00
2019-03-24T03:38:13.469Z,0.00
2019-03-24T03:39:13.485Z,0.00
2019-03-24T03:40:13.448Z,0.00
2019-03-24T03:41:13.449Z,0.00
2019-03-24T03:42:13.431Z,0.00
2019-03-24T03:43:13.418Z,0.00
2019-03-24T03:44:13.406Z,0.00
2019-03-24T03:45:13.401Z,0.00
2019-03-24T03:46:13.393Z,0.00
2019-03-24T03:47:13.373Z,0.00
2019-03-24T03:48:13.364Z,0.00
2019-03-24T03:49:13.354Z,0.00
2019-03-24T03:50:13.337Z,0.00
2019-03-24T03:51:13.339Z,0.00
2019-03-24T03:52:13.363Z,0.00
2019-03-24T03:53:13.314Z,0.00
2019-03-24T03:54:13.296Z,0.00
2019-03-24T03:55:13.288Z,0.00
2019-03-24T03:56:13.285Z,0.00
2019-03-24T03:57:13.264Z,0.00
2019-03-24T03:58:13.259Z,0.00
2019-03-24T03:59:13.245Z,0.00
2019-03-24T04:00:13.233Z,0.00
2019-03-24T04:01:13.232Z,0.00
2019-03-24T04:02:13.210Z,0.00
2019-03-24T04:03:13.203Z,0.00
2019-03-24T04:04:13.190Z,0.00
2019-03-24T04:05:13.178Z,0.00
2019-03-24T04:06:13.180Z,0.00
2019-03-24T04:07:13.157Z,0.00
2019-03-24T04:08:13.151Z,0.00
2019-03-24T04:09:13.142Z,0.00
2019-03-24T04:10:13.127Z,0.00
2019-03-24T04:11:13.123Z,0.00
2019-03-24T04:12:13.102Z,0.00
2019-03-24T04:13:13.094Z,0.00
2019-03-24T04:14:13.081Z,0.00
2019-03-24T04:15:13.078Z,0.00
2019-03-24T04:16:13.077Z,0.00
2019-03-24T04:17:13.051Z,0.00
2019-03-24T04:18:13.041Z,0.00
2019-03-24T04:19:13.056Z,0.00
2019-03-24T04:20:13.018Z,0.00
2019-03-24T04:21:13.020Z,0.00
2019-03-24T04:22:12.997Z,0.00
2019-03-24T04:23:12.992Z,0.00
2019-03-24T04:24:12.978Z,0.00
2019-03-24T04:25:12.973Z,0.00
2019-03-24T04:26:12.966Z,0.00
2019-03-24T04:27:12.943Z,0.00
2019-03-24T04:28:12.932Z,0.00
2019-03-24T04:29:12.930Z,0.00
2019-03-24T04:30:12.913Z,0.00
2019-03-24T04:31:12.926Z,0.00
2019-03-24T04:32:12.889Z,0.00
2019-03-24T04:33:12.876Z,0.00
2019-03-24T04:34:12.877Z,0.00
2019-03-24T04:35:12.860Z,0.00
2019-03-24T04:36:12.855Z,0.00
2019-03-24T04:37:12.836Z,0.00
2019-03-24T04:38:12.829Z,0.00
2019-03-24T04:39:12.820Z,0.00
2019-03-24T04:40:12.803Z,0.00
2019-03-24T04:41:12.815Z,0.00
2019-03-24T04:42:12.782Z,0.00
2019-03-24T04:43:12.777Z,0.00
2019-03-24T04:44:12.759Z,0.00
2019-03-24T04:45:12.748Z,0.00
2019-03-24T04:46:12.741Z,0.00
2019-03-24T04:47:16.834Z,0.00
2019-03-24T04:48:12.718Z,0.00
2019-03-24T04:49:12.725Z,0.00
2019-03-24T04:50:12.695Z,0.00
2019-03-24T04:51:12.685Z,0.00
2019-03-24T04:52:12.684Z,0.00
2019-03-24T04:53:12.666Z,0.00
2019-03-24T04:54:12.659Z,0.00
2019-03-24T04:55:12.643Z,0.00
2019-03-24T04:56:12.632Z,0.00
2019-03-24T04:57:12.633Z,0.00
2019-03-24T04:58:12.609Z,0.00
2019-03-24T04:59:12.604Z,0.00
2019-03-24T05:00:12.595Z,0.00
2019-03-24T05:01:12.580Z,0.00
2019-03-24T05:02:12.578Z,5.62
2019-03-24T05:03:12.557Z,5.62
2019-03-24T05:04:12.547Z,5.62
2019-03-24T05:05:12.543Z,5.62
2019-03-24T05:06:13.301Z,5.62
2019-03-24T05:07:12.528Z,5.62
2019-03-24T05:08:12.506Z,5.62
2019-03-24T05:09:12.496Z,11.25
2019-03-24T05:10:12.485Z,11.25
2019-03-24T05:11:12.472Z,11.25
2019-03-24T05:12:12.477Z,11.25
2019-03-24T05:13:12.452Z,16.88
2019-03-24T05:14:12.440Z,16.88
2019-03-24T05:15:12.428Z,16.88
2019-03-24T05:16:12.418Z,16.88
2019-03-24T05:17:12.417Z,16.88
2019-03-24T05:18:12.403Z,22.50
2019-03-24T05:19:12.386Z,22.50
2019-03-24T05:20:12.377Z,22.50
2019-03-24T05:21:12.363Z,28.12
2019-03-24T05:22:12.366Z,28.12
2019-03-24T05:23:12.349Z,28.12
2019-03-24T05:24:12.334Z,28.12
2019-03-24T05:25:12.325Z,33.75
2019-03-24T05:26:12.311Z,33.75
2019-03-24T05:27:12.310Z,33.75
2019-03-24T05:28:12.290Z,39.38
2019-03-24T05:29:12.276Z,39.38
2019-03-24T05:30:12.268Z,45.00
2019-03-24T05:31:12.256Z,45.00
2019-03-24T05:32:12.260Z,50.62
2019-03-24T05:33:12.238Z,56.25
2019-03-24T05:34:12.224Z,56.25
2019-03-24T05:35:12.213Z,61.88
2019-03-24T05:36:12.201Z,61.88
2019-03-24T05:37:12.202Z,67.50
2019-03-24T05:38:12.181Z,73.12
2019-03-24T05:39:12.171Z,73.12
2019-03-24T05:40:12.160Z,73.12
2019-03-24T05:41:12.149Z,78.75
2019-03-24T05:42:12.149Z,78.75
2019-03-24T05:43:12.131Z,84.38
2019-03-24T05:44:12.117Z,78.75
2019-03-24T05:45:12.107Z,90.00
2019-03-24T05:46:12.098Z,78.75
2019-03-24T05:47:12.097Z,61.88
2019-03-24T05:48:12.073Z,67.50
2019-03-24T05:49:12.062Z,67.50
2019-03-24T05:50:12.051Z,73.12
2019-03-24T05:51:12.043Z,84.38
2019-03-24T05:52:12.043Z,90.00
2019-03-24T05:53:12.025Z,106.88
2019-03-24T05:54:12.017Z,129.38
2019-03-24T05:55:12.002Z,151.88
2019-03-24T05:56:11.991Z,202.50
2019-03-24T05:57:11.983Z,230.62
2019-03-24T05:58:11.981Z,140.62
2019-03-24T05:59:11.956Z,135.00
2019-03-24T06:00:11.947Z,123.75
2019-03-24T06:01:11.935Z,118.12
2019-03-24T06:02:11.927Z,123.75
2019-03-24T06:03:11.928Z,129.38
2019-03-24T06:04:11.906Z,135.00
2019-03-24T06:05:11.895Z,140.62
2019-03-24T06:06:11.887Z,140.62
2019-03-24T06:07:11.872Z,129.38
2019-03-24T06:08:11.872Z,129.38
2019-03-24T06:09:11.849Z,123.75
2019-03-24T06:10:11.843Z,118.12
2019-03-24T06:11:11.831Z,112.50
2019-03-24T06:12:11.817Z,118.12
2019-03-24T06:13:11.819Z,129.38
2019-03-24T06:14:11.796Z,129.38
2019-03-24T06:15:11.786Z,140.62
2019-03-24T06:16:11.777Z,151.88
2019-03-24T06:17:11.764Z,157.50
2019-03-24T06:18:11.767Z,168.75
2019-03-24T06:19:11.743Z,174.38
2019-03-24T06:20:11.732Z,180.00
2019-03-24T06:21:11.723Z,185.62
2019-03-24T06:22:11.708Z,185.62
2019-03-24T06:23:20.375Z,196.88
2019-03-24T06:24:11.710Z,202.50
2019-03-24T06:25:11.681Z,208.12
2019-03-24T06:26:11.667Z,208.12
2019-03-24T06:27:11.656Z,213.75
2019-03-24T06:28:11.655Z,213.75
2019-03-24T06:29:11.645Z,213.75
2019-03-24T06:30:11.630Z,219.38
2019-03-24T06:31:11.612Z,225.00
2019-03-24T06:32:11.603Z,258.75
2019-03-24T06:33:11.609Z,236.25
2019-03-24T06:34:11.585Z,230.62
2019-03-24T06:35:11.580Z,230.62
2019-03-24T06:36:11.564Z,225.00
2019-03-24T06:37:11.550Z,258.75
2019-03-24T06:38:11.546Z,303.75
2019-03-24T06:39:11.526Z,281.25
2019-03-24T06:40:11.518Z,286.88
2019-03-24T06:41:11.507Z,253.12
2019-03-24T06:42:11.494Z,264.38
2019-03-24T06:43:11.546Z,230.62
2019-03-24T06:44:11.476Z,236.25
2019-03-24T06:45:11.464Z,241.88
2019-03-24T06:46:11.453Z,253.12
2019-03-24T06:47:11.441Z,258.75
2019-03-24T06:48:11.443Z,241.88
2019-03-24T06:49:11.427Z,286.88
2019-03-24T06:50:11.409Z,236.25
2019-03-24T06:51:11.405Z,247.50
2019-03-24T06:52:11.390Z,253.12
2019-03-24T06:53:11.430Z,241.88
2019-03-24T06:54:11.365Z,241.88
2019-03-24T06:55:11.355Z,241.88
2019-03-24T06:56:11.343Z,241.88
2019-03-24T06:57:11.342Z,247.50
2019-03-24T06:58:11.354Z,247.50
2019-03-24T06:59:11.312Z,247.50
2019-03-24T07:00:11.304Z,253.12
2019-03-24T07:01:11.289Z,253.12
2019-03-24T07:02:11.280Z,264.38
2019-03-24T07:03:11.272Z,275.62
2019-03-24T07:04:11.265Z,281.25
2019-03-24T07:05:11.247Z,286.88
2019-03-24T07:06:11.242Z,292.50
2019-03-24T07:07:11.227Z,309.38
2019-03-24T07:08:11.216Z,298.12
2019-03-24T07:09:11.213Z,292.50
2019-03-24T07:10:11.193Z,298.12
2019-03-24T07:11:13.641Z,303.75
2019-03-24T07:12:11.170Z,309.38
2019-03-24T07:13:11.157Z,320.62
2019-03-24T07:14:11.174Z,331.88
2019-03-24T07:15:11.138Z,326.25
2019-03-24T07:16:11.139Z,348.75
2019-03-24T07:17:11.114Z,337.50
2019-03-24T07:18:11.106Z,337.50
2019-03-24T07:19:11.103Z,348.75
2019-03-24T07:20:11.084Z,399.38
2019-03-24T07:21:11.071Z,393.75
2019-03-24T07:22:11.062Z,399.38
2019-03-24T07:23:11.050Z,455.62
2019-03-24T07:24:11.053Z,450.00
2019-03-24T07:25:11.036Z,472.50
2019-03-24T07:26:11.019Z,511.88
2019-03-24T07:27:11.008Z,669.38
2019-03-24T07:28:10.998Z,1220.62
2019-03-24T07:29:10.997Z,871.88
2019-03-24T07:30:10.977Z,1873.12
2019-03-24T07:31:10.972Z,2025.00
2019-03-24T07:32:10.954Z,3183.75
2019-03-24T07:33:10.946Z,1293.75
2019-03-24T07:34:10.943Z,1434.38
2019-03-24T07:35:10.926Z,1406.25
2019-03-24T07:36:10.919Z,3751.88
2019-03-24T07:37:10.902Z,2205.00
2019-03-24T07:38:10.890Z,2514.38
2019-03-24T07:39:10.892Z,2143.12
2019-03-24T07:40:10.874Z,2193.75
2019-03-24T07:41:10.863Z,1546.88
2019-03-24T07:42:10.846Z,1170.00
2019-03-24T07:43:10.837Z,1434.38
2019-03-24T07:44:10.839Z,1192.50
2019-03-24T07:45:10.820Z,1063.12
2019-03-24T07:46:10.803Z,1018.12
2019-03-24T07:47:10.800Z,1946.25
2019-03-24T07:48:18.661Z,821.25
2019-03-24T07:49:11.784Z,1389.38
2019-03-24T07:50:10.759Z,2829.38
2019-03-24T07:51:10.753Z,1068.75
2019-03-24T07:52:10.739Z,2025.00
2019-03-24T07:53:11.172Z,1906.88
2019-03-24T07:54:10.730Z,2604.38
2019-03-24T07:55:10.706Z,1625.62
2019-03-24T07:56:10.702Z,4021.88
2019-03-24T07:57:10.694Z,3971.25
2019-03-24T07:58:10.675Z,2013.75
2019-03-24T07:59:10.682Z,3583.12
2019-03-24T08:00:10.659Z,1648.12
2019-03-24T08:01:10.641Z,3245.62
2019-03-24T08:02:10.634Z,4072.50
2019-03-24T08:03:10.620Z,4449.38
2019-03-24T08:04:10.635Z,3206.25
2019-03-24T08:05:10.599Z,4471.88
2019-03-24T08:06:11.404Z,4235.62
2019-03-24T08:07:10.604Z,3943.12
2019-03-24T08:08:11.361Z,4263.75
2019-03-24T08:09:10.559Z,2925.00
2019-03-24T08:10:10.562Z,3003.75
2019-03-24T08:11:10.543Z,4218.75
2019-03-24T08:12:10.566Z,1541.25
2019-03-24T08:13:10.643Z,1676.25
2019-03-24T08:14:10.504Z,4606.88
2019-03-24T08:15:10.502Z,2368.12
2019-03-24T08:16:10.482Z,1558.12
2019-03-24T08:17:10.472Z,2784.38
2019-03-24T08:18:10.466Z,1743.75
2019-03-24T08:19:10.468Z,1158.75
2019-03-24T08:20:12.337Z,1901.25
2019-03-24T08:21:10.431Z,770.62
2019-03-24T08:22:11.370Z,871.88
2019-03-24T08:23:10.417Z,759.38
2019-03-24T08:24:10.399Z,765.00
2019-03-24T08:25:10.403Z,1316.25
2019-03-24T08:26:10.377Z,916.88
2019-03-24T08:27:10.365Z,1108.12
2019-03-24T08:28:10.358Z,2205.00
2019-03-24T08:29:10.345Z,3037.50
2019-03-24T08:30:10.348Z,3301.88
2019-03-24T08:31:10.324Z,1710.00
2019-03-24T08:32:10.313Z,3965.62
2019-03-24T08:33:10.302Z,2283.75
2019-03-24T08:34:10.296Z,855.00
2019-03-24T08:35:10.292Z,855.00
2019-03-24T08:36:10.269Z,1552.50
2019-03-24T08:37:10.258Z,815.62
2019-03-24T08:38:10.248Z,967.50
2019-03-24T08:39:10.238Z,1321.88
2019-03-24T08:40:10.241Z,877.50
2019-03-24T08:41:10.219Z,2401.88
2019-03-24T08:42:10.221Z,1473.75
2019-03-24T08:43:10.195Z,1423.12
2019-03-24T08:44:10.185Z,3830.62
2019-03-24T08:45:10.190Z,3583.12
2019-03-24T08:46:10.165Z,3172.50
2019-03-24T08:47:10.156Z,2570.62
2019-03-24T08:48:10.144Z,2863.12
2019-03-24T08:49:10.133Z,2896.88
2019-03-24T08:50:10.131Z,2266.88
2019-03-24T08:51:10.119Z,3200.62
2019-03-24T08:52:10.099Z,3313.12
2019-03-24T08:53:10.089Z,2491.88
2019-03-24T08:54:10.078Z,2998.12
2019-03-24T08:55:10.092Z,2621.25
2019-03-24T08:56:10.098Z,1091.25
2019-03-24T08:57:10.047Z,1260.00
2019-03-24T08:58:10.040Z,1378.12
2019-03-24T08:59:10.030Z,1192.50
2019-03-24T09:00:10.031Z,1170.00
2019-03-24T09:01:10.014Z,1018.12
2019-03-24T09:02:09.994Z,866.25
2019-03-24T09:03:10.149Z,1620.00
2019-03-24T09:04:09.976Z,978.75
2019-03-24T09:05:09.989Z,1018.12
2019-03-24T09:06:09.955Z,1164.38
2019-03-24T09:07:09.944Z,826.88
2019-03-24T09:08:09.933Z,821.25
2019-03-24T09:09:09.938Z,748.12
2019-03-24T09:10:09.913Z,736.88
2019-03-24T09:11:09.956Z,624.38
2019-03-24T09:12:09.891Z,641.25
2019-03-24T09:13:09.880Z,669.38
2019-03-24T09:14:09.872Z,624.38
2019-03-24T09:15:09.860Z,973.12
2019-03-24T09:16:09.877Z,675.00
2019-03-24T09:17:09.848Z,973.12
2019-03-24T09:18:09.827Z,776.25
2019-03-24T09:19:09.818Z,787.50
2019-03-24T09:20:09.812Z,877.50
2019-03-24T09:21:09.811Z,871.88
2019-03-24T09:22:09.786Z,838.12
2019-03-24T09:23:10.717Z,810.00
2019-03-24T09:24:09.761Z,1231.88
2019-03-24T09:25:09.757Z,961.88
2019-03-24T09:26:09.753Z,916.88
2019-03-24T09:27:09.732Z,1203.75
2019-03-24T09:28:09.720Z,1175.62
2019-03-24T09:29:09.710Z,1035.00
2019-03-24T09:30:09.697Z,1485.00
2019-03-24T09:31:09.702Z,1591.88
2019-03-24T09:32:09.677Z,1428.75
2019-03-24T09:33:09.676Z,1563.75
2019-03-24T09:34:09.665Z,1614.38
2019-03-24T09:35:09.647Z,1558.12
2019-03-24T09:36:09.645Z,1569.38
2019-03-24T09:37:09.631Z,1434.38
2019-03-24T09:38:09.618Z,1220.62
2019-03-24T09:39:09.604Z,1310.62
2019-03-24T09:40:09.591Z,1383.75
2019-03-24T09:41:09.589Z,1265.62
2019-03-24T09:42:10.402Z,1333.12
2019-03-24T09:43:09.560Z,1462.50
2019-03-24T09:44:09.548Z,1603.12
2019-03-24T09:45:09.539Z,1451.25
2019-03-24T09:46:09.542Z,1372.50
2019-03-24T09:47:09.518Z,1552.50
2019-03-24T09:48:09.507Z,1558.12
2019-03-24T09:49:09.498Z,1389.38
2019-03-24T09:50:09.487Z,1456.88
2019-03-24T09:51:09.482Z,1102.50
2019-03-24T09:52:09.465Z,1198.12
2019-03-24T09:53:09.456Z,1383.75
2019-03-24T09:54:09.445Z,1333.12
2019-03-24T09:55:09.436Z,1209.38
2019-03-24T09:56:09.430Z,1411.88
2019-03-24T09:57:09.412Z,1333.12
2019-03-24T09:58:09.401Z,1265.62
2019-03-24T09:59:09.407Z,1237.50
2019-03-24T10:00:09.384Z,1215.00
2019-03-24T10:01:09.378Z,1490.62
2019-03-24T10:02:09.357Z,1248.75
2019-03-24T10:03:09.348Z,1231.88
2019-03-24T10:04:09.342Z,1051.88
2019-03-24T10:05:09.333Z,922.50
2019-03-24T10:06:09.331Z,877.50
2019-03-24T10:07:09.304Z,871.88
2019-03-24T10:08:09.298Z,540.00
2019-03-24T10:09:09.283Z,528.75
2019-03-24T10:10:09.270Z,725.62
2019-03-24T10:11:09.274Z,579.38
2019-03-24T10:12:09.256Z,438.75
2019-03-24T10:13:09.244Z,444.38
2019-03-24T10:14:09.331Z,4488.75
2019-03-24T10:15:09.225Z,4494.38
2019-03-24T10:16:09.265Z,4128.75
2019-03-24T10:17:09.215Z,4365.00
2019-03-24T10:18:09.204Z,4511.25
2019-03-24T10:19:14.075Z,4747.50
2019-03-24T10:20:10.168Z,4674.38
2019-03-24T10:21:09.157Z,3999.38
2019-03-24T10:22:09.159Z,3352.50
2019-03-24T10:23:09.162Z,4522.50
2019-03-24T10:24:09.148Z,4325.62
2019-03-24T10:25:09.117Z,4764.38
2019-03-24T10:26:09.131Z,4955.62
2019-03-24T10:27:09.109Z,3571.88
2019-03-24T10:28:09.083Z,2041.88
2019-03-24T10:29:09.081Z,3290.62
2019-03-24T10:30:09.128Z,4117.50
2019-03-24T10:31:09.079Z,4168.12
2019-03-24T10:32:09.077Z,3577.50
2019-03-24T10:33:09.036Z,2958.75
2019-03-24T10:34:09.051Z,3037.50
2019-03-24T10:35:09.028Z,2503.12
2019-03-24T10:36:09.130Z,2058.75
2019-03-24T10:37:09.010Z,1771.88
2019-03-24T10:38:08.999Z,1406.25
2019-03-24T10:39:08.976Z,1434.38
2019-03-24T10:40:08.977Z,1479.38
2019-03-24T10:41:09.018Z,1496.25
2019-03-24T10:42:08.992Z,1445.62
2019-03-24T10:43:08.941Z,1569.38
2019-03-24T10:44:08.951Z,1845.00
2019-03-24T10:45:08.919Z,2250.00
2019-03-24T10:46:08.908Z,2632.50
2019-03-24T10:47:08.914Z,3155.62
2019-03-24T10:48:08.886Z,3695.62
2019-03-24T10:49:08.884Z,4168.12
2019-03-24T10:50:08.867Z,4488.75
2019-03-24T10:51:08.860Z,4820.62
2019-03-24T10:52:08.859Z,4725.00
2019-03-24T10:53:08.846Z,4826.25
2019-03-24T10:54:08.829Z,4674.38
2019-03-24T10:55:08.828Z,4179.38
2019-03-24T10:56:08.815Z,4556.25
2019-03-24T10:57:08.845Z,4938.75
2019-03-24T10:58:08.792Z,4618.12
2019-03-24T10:59:08.784Z,3712.50
2019-03-24T11:00:08.769Z,3330.00
2019-03-24T11:01:08.762Z,4578.75
2019-03-24T11:02:08.766Z,4702.50
2019-03-24T11:03:08.747Z,2925.00
2019-03-24T11:04:08.732Z,2210.62
2019-03-24T11:05:08.729Z,2266.88
2019-03-24T11:06:08.713Z,2002.50
2019-03-24T11:07:09.078Z,2244.38
2019-03-24T11:08:08.703Z,2964.38
2019-03-24T11:09:08.683Z,3330.00
2019-03-24T11:10:08.686Z,4168.12
2019-03-24T11:11:08.678Z,4089.38
2019-03-24T11:12:08.660Z,4556.25
2019-03-24T11:13:08.654Z,5130.00
2019-03-24T11:14:08.652Z,5788.12
2019-03-24T11:15:08.651Z,5428.12
2019-03-24T11:16:08.615Z,4691.25
2019-03-24T11:17:08.624Z,4966.88
2019-03-24T11:18:08.623Z,5293.12
2019-03-24T11:19:08.590Z,2610.00
2019-03-24T11:20:08.593Z,900.00
2019-03-24T11:21:08.942Z,1006.88
2019-03-24T11:22:08.558Z,2773.12
2019-03-24T11:23:08.587Z,3774.38
2019-03-24T11:24:08.539Z,4528.12
2019-03-24T11:25:08.527Z,5197.50
2019-03-24T11:26:08.530Z,4786.88
2019-03-24T11:27:08.507Z,4145.62
2019-03-24T11:28:08.513Z,5023.12
2019-03-24T11:29:08.498Z,3858.75
2019-03-24T11:30:08.486Z,3076.88
2019-03-24T11:31:08.473Z,2323.12
2019-03-24T11:32:08.473Z,2840.62
2019-03-24T11:33:08.476Z,4488.75
2019-03-24T11:34:08.444Z,3487.50
2019-03-24T11:35:08.438Z,3498.75
2019-03-24T11:36:08.423Z,2733.75
2019-03-24T11:37:08.413Z,2480.62
2019-03-24T11:38:08.424Z,3431.25
2019-03-24T11:39:08.391Z,3133.12
2019-03-24T11:40:08.394Z,3425.62
2019-03-24T11:41:08.379Z,4921.88
2019-03-24T11:42:08.377Z,4623.75
2019-03-24T11:43:08.365Z,4820.62
2019-03-24T11:44:08.352Z,5428.12
2019-03-24T11:45:08.340Z,5326.88
2019-03-24T11:46:08.328Z,4432.50
2019-03-24T11:47:08.344Z,5956.88
2019-03-24T11:48:08.339Z,5040.00
2019-03-24T11:49:08.304Z,4854.38
2019-03-24T11:50:08.296Z,2705.62
2019-03-24T11:51:08.281Z,5388.75
2019-03-24T11:52:08.277Z,5287.50
2019-03-24T11:53:08.275Z,4331.25
2019-03-24T11:54:08.256Z,1361.25
2019-03-24T11:55:08.255Z,1440.00
2019-03-24T11:56:08.236Z,1141.88
2019-03-24T11:57:08.238Z,877.50
2019-03-24T11:58:08.229Z,815.62
2019-03-24T11:59:08.211Z,826.88
2019-03-24T12:00:08.274Z,894.38
2019-03-24T12:01:08.201Z,1822.50
2019-03-24T12:02:08.180Z,1884.38
2019-03-24T12:03:08.182Z,5231.25
2019-03-24T12:04:08.165Z,2407.50
2019-03-24T12:05:08.152Z,1125.00
2019-03-24T12:06:14.363Z,1411.88
2019-03-24T12:07:09.145Z,2098.12
2019-03-24T12:08:08.136Z,928.12
2019-03-24T12:09:08.112Z,2103.75
2019-03-24T12:10:08.118Z,1496.25
2019-03-24T12:11:08.093Z,1434.38
2019-03-24T12:12:08.088Z,4168.12
2019-03-24T12:13:08.102Z,1276.88
2019-03-24T12:14:08.070Z,4263.75
2019-03-24T12:15:08.102Z,2418.75
2019-03-24T12:16:08.053Z,1237.50
2019-03-24T12:17:08.035Z,1721.25
2019-03-24T12:18:08.036Z,1147.50
2019-03-24T12:19:08.019Z,1181.25
2019-03-24T12:20:08.005Z,1473.75
2019-03-24T12:21:08.000Z,4252.50
2019-03-24T12:22:07.990Z,1203.75
2019-03-24T12:23:07.974Z,4567.50
2019-03-24T12:24:16.546Z,3133.12
2019-03-24T12:25:07.945Z,1681.88
2019-03-24T12:26:07.936Z,3892.50
2019-03-24T12:27:07.925Z,4725.00
2019-03-24T12:28:07.919Z,5197.50
2019-03-24T12:29:07.915Z,1012.50
2019-03-24T12:30:07.895Z,956.25
2019-03-24T12:31:07.884Z,1006.88
2019-03-24T12:32:07.877Z,1068.75
2019-03-24T12:33:07.866Z,905.62
2019-03-24T12:34:07.866Z,2266.88
2019-03-24T12:35:07.844Z,1710.00
2019-03-24T12:36:07.882Z,793.12
2019-03-24T12:37:07.826Z,708.75
2019-03-24T12:38:07.813Z,753.75
2019-03-24T12:39:07.813Z,601.88
2019-03-24T12:40:07.799Z,708.75
2019-03-24T12:41:07.871Z,573.75
2019-03-24T12:42:07.782Z,680.62
2019-03-24T12:43:18.687Z,523.12